createdAt,value
2022-09-21T00:01:40.316Z,2.03
2022-09-21T00:04:08.819Z,1.57
2022-09-21T00:06:38.686Z,1.67
2022-09-21T00:09:09.619Z,2.08
2022-09-21T00:11:38.628Z,1.70
2022-09-21T00:14:09.002Z,1.90
2022-09-21T00:16:37.739Z,2.25
2022-09-21T00:19:06.882Z,1.77
2022-09-21T00:21:35.817Z,2.10
2022-09-21T00:24:04.604Z,2.00
2022-09-21T00:26:34.776Z,1.75
2022-09-21T00:29:05.054Z,1.80
2022-09-21T00:31:33.876Z,1.75
2022-09-21T00:34:03.787Z,1.88
2022-09-21T00:36:32.338Z,1.60
2022-09-21T00:39:02.256Z,2.85
2022-09-21T00:41:32.836Z,2.28
2022-09-21T00:44:29.942Z,2.10
2022-09-21T00:47:03.001Z,2.30
2022-09-21T00:49:32.340Z,2.15
2022-09-21T00:52:04.396Z,2.30
2022-09-21T00:54:39.492Z,2.25
2022-09-21T00:57:08.683Z,2.10
2022-09-21T00:59:39.782Z,2.00
2022-09-21T01:02:08.446Z,1.90
2022-09-21T01:04:37.416Z,1.88
2022-09-21T01:07:12.473Z,1.67
2022-09-21T01:09:42.062Z,1.93
2022-09-21T01:12:21.862Z,1.50
2022-09-21T01:15:16.667Z,1.50
2022-09-21T01:17:51.173Z,1.58
2022-09-21T01:20:35.039Z,1.55
2022-09-21T01:23:23.066Z,1.80
2022-09-21T01:26:04.960Z,1.80
2022-09-21T01:29:05.946Z,1.50
2022-09-21T01:31:41.056Z,1.70
2022-09-21T01:34:16.799Z,1.73
2022-09-21T01:36:48.702Z,1.57
2022-09-21T01:39:20.885Z,1.38
2022-09-21T01:41:52.115Z,1.83
2022-09-21T01:44:23.507Z,1.80
2022-09-21T01:46:54.452Z,1.73
2022-09-21T01:49:28.728Z,1.40
2022-09-21T01:52:00.834Z,1.50
2022-09-21T01:54:36.560Z,1.80
2022-09-21T01:57:13.124Z,2.08
2022-09-21T01:59:48.866Z,1.73
2022-09-21T02:02:21.254Z,1.75
2022-09-21T02:04:49.997Z,1.90
2022-09-21T02:07:19.084Z,1.98
2022-09-21T02:09:48.375Z,1.70
2022-09-21T02:12:19.184Z,2.08
2022-09-21T02:14:48.458Z,1.97
2022-09-21T02:17:34.402Z,1.80
2022-09-21T02:20:10.939Z,1.70
2022-09-21T02:22:46.942Z,2.10
2022-09-21T02:25:19.787Z,2.05
2022-09-21T02:27:54.854Z,1.90
2022-09-21T02:30:25.036Z,2.17
2022-09-21T02:33:01.450Z,2.13
2022-09-21T02:35:36.344Z,2.20
2022-09-21T02:38:12.342Z,1.90
2022-09-21T02:40:44.875Z,2.20
2022-09-21T02:43:21.760Z,1.88
2022-09-21T02:45:55.906Z,2.15
2022-09-21T02:48:30.953Z,1.90
2022-09-21T02:51:04.960Z,1.95
2022-09-21T02:53:37.425Z,2.20
2022-09-21T02:56:08.573Z,2.25
2022-09-21T02:58:41.375Z,2.30
2022-09-21T03:01:13.539Z,1.90
2022-09-21T03:03:43.226Z,2.28
2022-09-21T03:06:11.926Z,2.10
2022-09-21T03:08:40.979Z,2.10
2022-09-21T03:11:10.889Z,2.25
2022-09-21T03:13:39.369Z,2.20
2022-09-21T03:16:08.624Z,1.80
2022-09-21T03:18:36.926Z,2.20
2022-09-21T03:21:07.122Z,2.28
2022-09-21T03:23:35.465Z,1.95
2022-09-21T03:26:04.133Z,1.90
2022-09-21T03:28:32.672Z,1.90
2022-09-21T03:31:01.199Z,2.20
2022-09-21T03:33:29.748Z,2.03
2022-09-21T03:35:58.011Z,2.00
2022-09-21T03:38:27.737Z,2.00
2022-09-21T03:40:57.989Z,2.08
2022-09-21T03:43:26.580Z,2.00
2022-09-21T03:45:55.095Z,2.20
2022-09-21T03:48:23.559Z,2.03
2022-09-21T03:50:52.074Z,2.10
2022-09-21T03:53:20.397Z,2.47
2022-09-21T03:55:50.785Z,2.20
2022-09-21T03:58:19.090Z,2.33
2022-09-21T04:00:47.349Z,1.87
2022-09-21T04:03:15.675Z,2.15
2022-09-21T04:05:45.479Z,1.92
2022-09-21T04:08:13.861Z,2.00
2022-09-21T04:10:43.472Z,1.85
2022-09-21T04:13:13.695Z,1.90
2022-09-21T04:15:42.026Z,2.00
2022-09-21T04:18:10.504Z,2.00
2022-09-21T04:20:38.778Z,2.00
2022-09-21T04:23:09.412Z,1.90
2022-09-21T04:25:37.713Z,2.08
2022-09-21T04:28:06.051Z,1.88
2022-09-21T04:30:37.934Z,2.10
2022-09-21T04:33:06.578Z,1.98
2022-09-21T04:35:34.895Z,2.13
2022-09-21T04:38:03.482Z,2.13
2022-09-21T04:40:31.900Z,2.17
2022-09-21T04:43:00.345Z,2.30
2022-09-21T04:45:28.714Z,2.33
2022-09-21T04:47:58.547Z,2.38
2022-09-21T04:50:26.951Z,2.55
2022-09-21T04:52:55.291Z,3.00
2022-09-21T04:55:23.617Z,2.80
2022-09-21T04:57:51.961Z,3.05
2022-09-21T05:00:20.443Z,3.08
2022-09-21T05:02:48.710Z,3.40
2022-09-21T05:05:18.482Z,3.50
2022-09-21T05:07:46.750Z,3.63
2022-09-21T05:10:14.108Z,4.35
2022-09-21T05:12:43.915Z,4.82
2022-09-21T05:15:12.419Z,4.30
2022-09-21T05:17:42.027Z,4.80
2022-09-21T05:20:12.100Z,4.35
2022-09-21T05:22:41.753Z,4.30
2022-09-21T05:25:11.507Z,4.32
2022-09-21T05:27:39.832Z,4.27
2022-09-21T05:30:09.698Z,4.55
2022-09-21T05:32:46.784Z,4.00
2022-09-21T05:35:23.152Z,4.40
2022-09-21T05:37:58.457Z,4.80
2022-09-21T05:40:27.573Z,4.43
2022-09-21T05:42:56.642Z,4.90
2022-09-21T05:45:26.146Z,4.70
2022-09-21T05:48:09.942Z,4.88
2022-09-21T05:50:50.957Z,4.60
2022-09-21T05:53:43.172Z,4.50
2022-09-21T05:56:23.722Z,5.55
2022-09-21T05:59:01.354Z,4.33
2022-09-21T06:01:42.737Z,4.05
2022-09-21T06:04:13.318Z,4.70
2022-09-21T06:06:41.964Z,4.43
2022-09-21T06:09:11.673Z,4.43
2022-09-21T06:11:40.049Z,4.33
2022-09-21T06:14:08.324Z,4.40
2022-09-21T06:16:40.279Z,4.60
2022-09-21T06:19:11.903Z,4.25
2022-09-21T06:21:40.234Z,4.05
2022-09-21T06:24:08.817Z,4.50
2022-09-21T06:26:38.569Z,4.35
2022-09-21T06:29:06.896Z,4.00
2022-09-21T06:31:35.531Z,3.67
2022-09-21T06:34:04.077Z,3.88
2022-09-21T06:36:32.389Z,3.55
2022-09-21T06:39:00.781Z,3.50
2022-09-21T06:41:29.104Z,3.53
2022-09-21T06:43:58.867Z,3.00
2022-09-21T06:46:27.202Z,2.72
2022-09-21T06:48:55.789Z,2.72
2022-09-21T06:51:24.268Z,2.70
2022-09-21T06:53:56.428Z,2.60
2022-09-21T06:56:25.534Z,2.70
2022-09-21T06:58:54.860Z,2.60
2022-09-21T07:01:24.803Z,2.30
2022-09-21T07:03:54.170Z,2.60
2022-09-21T07:06:22.627Z,2.50
2022-09-21T07:11:41.953Z,2.92
2022-09-21T07:14:10.292Z,2.60
2022-09-21T07:16:40.118Z,2.40
2022-09-21T07:19:12.082Z,2.10
2022-09-21T07:21:40.798Z,2.45
2022-09-21T07:24:12.346Z,2.15
2022-09-21T07:26:41.207Z,1.80
2022-09-21T07:29:09.689Z,2.15
2022-09-21T07:31:39.514Z,2.35
2022-09-21T07:34:08.057Z,2.40
2022-09-21T07:36:36.468Z,2.17
2022-09-21T07:39:05.256Z,2.22
2022-09-21T07:41:33.717Z,1.95
2022-09-21T07:44:02.292Z,1.70
2022-09-21T07:46:30.660Z,2.13
2022-09-21T07:49:00.682Z,2.05
2022-09-21T07:51:29.004Z,2.15
2022-09-21T07:53:58.086Z,1.73
2022-09-21T07:56:26.991Z,1.90
2022-09-21T07:59:06.591Z,2.00
2022-09-21T08:01:36.393Z,1.50
2022-09-21T08:04:09.003Z,1.65
2022-09-21T08:06:40.306Z,1.65
2022-09-21T08:09:09.017Z,1.60
2022-09-21T08:11:39.182Z,1.67
2022-09-21T08:14:08.720Z,1.27
2022-09-21T08:16:39.890Z,1.50
2022-09-21T08:19:09.653Z,1.40
2022-09-21T08:21:37.907Z,1.20
2022-09-21T08:24:07.831Z,1.33
2022-09-21T08:26:36.932Z,1.27
2022-09-21T08:29:06.701Z,1.50
2022-09-21T08:31:35.340Z,1.33
2022-09-21T08:34:03.658Z,1.25
2022-09-21T08:36:34.505Z,1.10
2022-09-21T08:39:02.926Z,1.10
2022-09-21T08:41:50.004Z,1.20
2022-09-21T08:44:21.717Z,1.20
2022-09-21T08:46:55.782Z,1.13
2022-09-21T08:49:29.057Z,1.08
2022-09-21T08:52:02.417Z,1.30
2022-09-21T08:54:39.562Z,1.30
2022-09-21T08:57:13.145Z,1.10
2022-09-21T08:59:45.305Z,1.20
2022-09-21T09:02:37.942Z,1.02
2022-09-21T09:05:19.605Z,1.00
2022-09-21T09:08:19.566Z,1.20
2022-09-21T09:10:57.823Z,1.40
2022-09-21T09:13:44.338Z,1.40
2022-09-21T09:16:19.575Z,1.00
2022-09-21T09:18:53.405Z,1.00
2022-09-21T09:21:31.441Z,1.17
2022-09-21T09:24:05.453Z,1.10
2022-09-21T09:26:39.969Z,1.08
2022-09-21T09:29:15.647Z,1.07
2022-09-21T09:31:44.555Z,1.08
2022-09-21T09:34:16.996Z,1.10
2022-09-21T09:36:58.859Z,0.90
2022-09-21T09:39:31.931Z,0.80
2022-09-21T09:42:15.183Z,0.95
2022-09-21T09:45:00.701Z,0.70
2022-09-21T09:47:41.257Z,0.70
2022-09-21T09:50:13.738Z,0.90
2022-09-21T09:52:42.477Z,0.82
2022-09-21T09:55:21.285Z,0.90
2022-09-21T09:57:50.554Z,1.08
2022-09-21T10:00:22.053Z,0.70
2022-09-21T10:02:52.687Z,0.70
2022-09-21T10:05:24.264Z,0.90
2022-09-21T10:07:53.749Z,1.00
2022-09-21T10:10:42.587Z,1.00
2022-09-21T10:13:15.030Z,0.80
2022-09-21T10:15:46.509Z,0.95
2022-09-21T10:18:21.983Z,1.08
2022-09-21T10:20:58.882Z,1.00
2022-09-21T10:23:27.954Z,0.90
2022-09-21T10:26:04.260Z,0.77
2022-09-21T10:28:33.292Z,0.90
2022-09-21T10:31:17.865Z,1.10
2022-09-21T10:33:51.303Z,1.05
2022-09-21T10:36:33.157Z,1.10
2022-09-21T10:39:23.769Z,0.90
2022-09-21T10:41:58.440Z,1.00
2022-09-21T10:44:30.405Z,1.20
2022-09-21T10:47:01.811Z,0.80
2022-09-21T10:49:30.661Z,0.95
2022-09-21T10:52:00.815Z,0.82
2022-09-21T10:54:33.164Z,1.10
2022-09-21T10:57:08.432Z,1.00
2022-09-21T10:59:38.360Z,1.02
2022-09-21T11:02:28.058Z,0.85
2022-09-21T11:04:59.940Z,1.00
2022-09-21T11:07:34.260Z,0.90
2022-09-21T11:10:12.941Z,0.80
2022-09-21T11:13:04.211Z,1.10
2022-09-21T11:15:43.255Z,0.90
2022-09-21T11:18:20.163Z,0.70
2022-09-21T11:20:51.390Z,0.75
2022-09-21T11:23:43.327Z,0.88
2022-09-21T11:26:17.039Z,0.90
2022-09-21T11:28:51.006Z,0.88
2022-09-21T11:31:45.232Z,1.20
2022-09-21T11:34:36.271Z,1.08
2022-09-21T11:37:13.738Z,1.20
2022-09-21T11:40:01.257Z,1.05
2022-09-21T11:42:47.570Z,1.17
2022-09-21T11:45:32.692Z,0.90
2022-09-21T11:48:14.690Z,0.80
2022-09-21T11:50:53.568Z,0.70
2022-09-21T11:53:46.839Z,0.80
2022-09-21T11:56:32.057Z,0.67
2022-09-21T11:59:14.923Z,1.00
2022-09-21T12:01:58.636Z,0.73
2022-09-21T12:04:47.138Z,0.90
2022-09-21T12:07:31.183Z,0.80
2022-09-21T12:10:16.142Z,0.70
2022-09-21T12:12:51.661Z,0.90
2022-09-21T12:15:25.193Z,0.80
2022-09-21T12:18:04.312Z,0.80
2022-09-21T12:20:43.440Z,0.73
2022-09-21T12:23:17.671Z,0.77
2022-09-21T12:25:50.796Z,0.80
2022-09-21T12:28:23.868Z,0.75
2022-09-21T12:31:00.816Z,1.10
2022-09-21T12:33:40.379Z,0.80
2022-09-21T12:36:14.832Z,0.80
2022-09-21T12:38:48.925Z,0.68
2022-09-21T12:41:24.712Z,1.10
2022-09-21T12:44:01.575Z,1.10
2022-09-21T12:46:34.919Z,1.00
2022-09-21T12:49:14.322Z,0.90
2022-09-21T12:51:45.973Z,0.90
2022-09-21T12:54:25.838Z,0.82
2022-09-21T12:57:23.522Z,0.93
2022-09-21T13:00:01.228Z,0.98
2022-09-21T13:02:37.237Z,0.80
2022-09-21T13:05:14.833Z,0.98
2022-09-21T13:08:00.838Z,1.02
2022-09-21T13:10:54.931Z,1.10
2022-09-21T13:13:31.152Z,0.90
2022-09-21T13:16:00.872Z,1.00
2022-09-21T13:18:36.041Z,1.00
2022-09-21T13:21:18.652Z,0.90
2022-09-21T13:23:55.612Z,0.80
2022-09-21T13:26:34.752Z,0.80
2022-09-21T13:29:26.993Z,1.30
2022-09-21T13:31:59.369Z,0.90
2022-09-21T13:34:33.532Z,1.23
2022-09-21T13:37:33.302Z,0.90
2022-09-21T13:40:41.588Z,0.95
2022-09-21T13:43:25.458Z,1.13
2022-09-21T13:45:59.570Z,0.88
2022-09-21T13:48:30.665Z,1.00
2022-09-21T13:51:01.985Z,1.00
2022-09-21T13:53:40.125Z,1.00
2022-09-21T13:56:20.633Z,0.90
2022-09-21T13:58:53.341Z,0.90
2022-09-21T14:01:45.674Z,0.82
2022-09-21T14:04:24.025Z,1.13
2022-09-21T14:06:54.978Z,0.70
2022-09-21T14:09:29.128Z,1.00
2022-09-21T14:12:00.482Z,0.80
2022-09-21T14:14:32.960Z,0.82
2022-09-21T14:17:02.580Z,0.98
2022-09-21T14:20:08.460Z,1.00
2022-09-21T14:22:44.133Z,0.60
2022-09-21T14:25:31.154Z,0.90
2022-09-21T14:28:12.122Z,0.70
2022-09-21T14:30:41.780Z,0.83
2022-09-21T14:33:28.544Z,1.10
2022-09-21T14:35:59.263Z,0.82
2022-09-21T14:38:30.932Z,0.90
2022-09-21T14:41:04.221Z,0.88
2022-09-21T14:43:35.357Z,0.90
2022-09-21T14:46:26.642Z,1.00
2022-09-21T14:49:06.490Z,0.85
2022-09-21T14:51:55.683Z,0.90
2022-09-21T14:54:39.047Z,0.98
2022-09-21T14:57:23.536Z,0.85
2022-09-21T15:00:14.420Z,0.70
2022-09-21T15:02:45.756Z,0.80
2022-09-21T15:05:26.107Z,0.90
2022-09-21T15:08:40.820Z,0.88
2022-09-21T15:11:14.946Z,0.87
2022-09-21T15:14:18.144Z,1.00
2022-09-21T15:16:48.879Z,0.80
2022-09-21T15:19:24.938Z,1.00
2022-09-21T15:21:55.250Z,1.00
2022-09-21T15:24:27.619Z,1.00
2022-09-21T15:27:10.420Z,1.00
2022-09-21T15:29:41.029Z,0.90
2022-09-21T15:32:09.407Z,1.00
2022-09-21T15:34:38.068Z,0.80
2022-09-21T15:37:17.532Z,1.17
2022-09-21T15:39:46.010Z,1.10
2022-09-21T15:42:23.284Z,1.10
2022-09-21T15:45:06.085Z,1.07
2022-09-21T15:47:34.739Z,1.00
2022-09-21T15:50:04.046Z,0.97
2022-09-21T15:52:36.348Z,0.80
2022-09-21T15:55:11.421Z,1.02
2022-09-21T15:57:43.224Z,1.10
2022-09-21T16:00:26.002Z,1.00
2022-09-21T16:03:07.031Z,1.15
2022-09-21T16:05:45.245Z,1.00
2022-09-21T16:08:23.660Z,1.00
2022-09-21T16:10:52.176Z,0.98
2022-09-21T16:13:39.599Z,1.00
2022-09-21T16:16:11.070Z,1.20
2022-09-21T16:18:46.452Z,1.30
2022-09-21T16:21:22.561Z,1.35
2022-09-21T16:23:52.776Z,1.10
2022-09-21T16:26:24.705Z,1.00
2022-09-21T16:29:17.004Z,1.00
2022-09-21T16:31:50.084Z,0.90
2022-09-21T16:34:36.932Z,1.20
2022-09-21T16:37:25.559Z,0.90
2022-09-21T16:39:57.345Z,1.07
2022-09-21T16:42:27.981Z,1.17
2022-09-21T16:44:56.746Z,0.90
2022-09-21T16:47:28.432Z,0.90
2022-09-21T16:50:00.391Z,1.50
2022-09-21T16:52:29.712Z,0.90
2022-09-21T16:54:58.886Z,1.25
2022-09-21T16:57:27.876Z,1.00
2022-09-21T16:59:56.236Z,1.40
2022-09-21T17:02:26.203Z,1.08
2022-09-21T17:04:54.501Z,1.23
2022-09-21T17:07:22.810Z,1.10
2022-09-21T17:09:52.738Z,1.30
2022-09-21T17:12:22.226Z,1.20
2022-09-21T17:14:51.784Z,1.38
2022-09-21T17:17:22.772Z,1.42
2022-09-21T17:19:54.590Z,1.80
2022-09-21T17:22:25.142Z,1.80
2022-09-21T17:24:54.886Z,1.50
2022-09-21T17:27:26.869Z,1.80
2022-09-21T17:29:56.589Z,2.00
2022-09-21T17:32:26.002Z,1.80
2022-09-21T17:35:01.802Z,1.98
2022-09-21T17:37:30.188Z,1.83
2022-09-21T17:39:59.279Z,2.10
2022-09-21T17:42:30.008Z,1.77
2022-09-21T17:45:13.597Z,1.90
2022-09-21T17:47:43.909Z,1.88
2022-09-21T17:50:26.336Z,1.90
2022-09-21T17:53:13.045Z,1.75
2022-09-21T17:55:46.059Z,1.90
2022-09-21T17:58:33.767Z,1.83
2022-09-21T18:01:07.646Z,2.00
2022-09-21T18:03:41.168Z,2.40
2022-09-21T18:06:12.344Z,2.20
2022-09-21T18:08:41.561Z,2.03
2022-09-21T18:11:44.901Z,2.00
2022-09-21T18:14:23.068Z,2.42
2022-09-21T18:17:00.250Z,2.38
2022-09-21T18:19:42.753Z,2.17
2022-09-21T18:22:20.395Z,1.98
2022-09-21T18:24:49.484Z,1.90
2022-09-21T18:27:20.128Z,2.10
2022-09-21T18:29:49.241Z,2.13
2022-09-21T18:32:50.293Z,2.05
2022-09-21T18:35:42.533Z,1.75
2022-09-21T18:38:28.549Z,2.40
2022-09-21T18:41:12.892Z,2.10
2022-09-21T18:43:59.164Z,2.08
2022-09-21T18:46:38.333Z,2.05
2022-09-21T18:49:14.387Z,2.60
2022-09-21T18:51:48.928Z,1.92
2022-09-21T18:54:20.899Z,2.00
2022-09-21T18:56:50.012Z,2.20
2022-09-21T18:59:19.333Z,2.53
2022-09-21T19:01:50.713Z,2.50
2022-09-21T19:04:20.242Z,1.90
2022-09-21T19:06:55.609Z,2.47
2022-09-21T19:09:39.512Z,2.20
2022-09-21T19:12:19.340Z,2.60
2022-09-21T19:14:58.996Z,2.50
2022-09-21T19:17:40.921Z,2.08
2022-09-21T19:20:41.368Z,2.08
2022-09-21T19:23:19.107Z,2.45
2022-09-21T19:25:54.449Z,2.00
2022-09-21T19:28:43.701Z,2.35
2022-09-21T19:31:13.416Z,2.05
2022-09-21T19:33:51.141Z,1.60
2022-09-21T19:36:20.622Z,2.13
2022-09-21T19:38:49.325Z,1.60
2022-09-21T19:41:37.696Z,2.20
2022-09-21T19:44:32.601Z,1.70
2022-09-21T19:47:07.758Z,1.85
2022-09-21T19:49:43.234Z,1.92
2022-09-21T19:52:16.407Z,2.00
2022-09-21T19:55:02.693Z,1.60
2022-09-21T19:57:50.152Z,1.80
2022-09-21T20:00:19.404Z,1.70
2022-09-21T20:02:57.904Z,1.83
2022-09-21T20:05:35.019Z,1.63
2022-09-21T20:08:09.312Z,1.48
2022-09-21T20:10:53.399Z,1.70
2022-09-21T20:13:32.343Z,1.60
2022-09-21T20:16:08.275Z,1.75
2022-09-21T20:18:43.475Z,1.77
2022-09-21T20:21:15.498Z,1.70
2022-09-21T20:23:47.711Z,1.60
2022-09-21T20:26:25.116Z,1.50
2022-09-21T20:28:56.080Z,1.60
2022-09-21T20:31:26.976Z,1.50
2022-09-21T20:33:55.348Z,1.67
2022-09-21T20:36:23.968Z,1.80
2022-09-21T20:38:52.197Z,1.50
2022-09-21T20:41:24.507Z,1.70
2022-09-21T20:43:54.391Z,1.30
2022-09-21T20:46:23.196Z,1.80
2022-09-21T20:49:00.327Z,2.90
2022-09-21T20:51:28.852Z,3.03
2022-09-21T20:53:57.436Z,4.57
2022-09-21T20:56:25.785Z,3.10
2022-09-21T20:58:55.705Z,2.80
2022-09-21T21:01:24.914Z,2.38
2022-09-21T21:03:53.502Z,1.80
2022-09-21T21:06:21.943Z,1.52
2022-09-21T21:08:50.376Z,1.63
2022-09-21T21:11:18.953Z,1.55
2022-09-21T21:13:47.541Z,1.80
2022-09-21T21:16:17.321Z,1.65
2022-09-21T21:18:45.655Z,1.70
2022-09-21T21:21:14.038Z,1.85
2022-09-21T21:23:59.675Z,1.70
2022-09-21T21:26:50.260Z,1.40
2022-09-21T21:29:16.350Z,2.07
2022-09-21T21:31:47.698Z,1.55
2022-09-21T21:34:16.297Z,1.63
2022-09-21T21:36:44.735Z,1.70
2022-09-21T21:39:13.017Z,1.92
2022-09-21T21:41:43.249Z,1.60
2022-09-21T21:44:12.466Z,1.50
2022-09-21T21:46:40.729Z,1.50
2022-09-21T21:49:10.558Z,1.75
2022-09-21T21:51:38.858Z,1.40
2022-09-21T21:54:07.385Z,1.40
2022-09-21T21:56:35.731Z,1.40
2022-09-21T21:59:04.266Z,1.40
2022-09-21T22:01:32.715Z,1.52
2022-09-21T22:04:02.584Z,1.63
2022-09-21T22:06:34.046Z,1.40
2022-09-21T22:09:03.602Z,1.42
2022-09-21T22:11:32.220Z,1.70
2022-09-21T22:14:01.747Z,1.40
2022-09-21T22:16:31.592Z,1.48
2022-09-21T22:19:00.761Z,1.80
2022-09-21T22:21:32.094Z,1.48
2022-09-21T22:24:02.056Z,1.40
2022-09-21T22:26:32.240Z,1.80
2022-09-21T22:29:02.980Z,1.60
2022-09-21T22:31:35.257Z,1.40
2022-09-21T22:34:03.820Z,1.88
2022-09-21T22:36:34.922Z,1.85
2022-09-21T22:39:04.149Z,1.60
2022-09-21T22:41:36.045Z,1.65
2022-09-21T22:44:04.408Z,1.55
2022-09-21T22:46:33.533Z,1.70
2022-09-21T22:49:02.186Z,1.83
2022-09-21T22:51:32.924Z,1.80
2022-09-21T22:54:02.354Z,1.87
2022-09-21T22:56:32.616Z,1.67
2022-09-21T22:59:04.132Z,1.20
2022-09-21T23:01:34.692Z,1.43
2022-09-21T23:04:05.499Z,1.67
2022-09-21T23:06:36.900Z,1.50
2022-09-21T23:09:07.555Z,1.20
2022-09-21T23:11:38.401Z,1.20
2022-09-21T23:14:07.368Z,1.30
2022-09-21T23:16:35.859Z,1.10
2022-09-21T23:19:04.244Z,1.20
2022-09-21T23:21:34.332Z,1.30
2022-09-21T23:24:05.411Z,1.52
2022-09-21T23:26:35.065Z,1.23
2022-09-21T23:29:06.119Z,1.30
2022-09-21T23:31:34.629Z,1.07
2022-09-21T23:34:07.841Z,1.20
2022-09-21T23:36:38.159Z,1.38
2022-09-21T23:39:08.064Z,1.05
2022-09-21T23:41:37.833Z,1.40
2022-09-21T23:44:06.664Z,1.10
2022-09-21T23:46:37.948Z,1.20
2022-09-21T23:49:06.663Z,1.50
2022-09-21T23:51:35.404Z,1.30
2022-09-21T23:54:05.542Z,1.10
2022-09-21T23:56:34.576Z,1.00
2022-09-21T23:59:03.305Z,1.67
